Time;durP1;ratioP1;P1;durP2;ratioP2;P2;SDS_P1;SDS_P2;PMS_P1;PMS_P2;Temp;Humidity;BMP_temperature;BMP_pressure;BME280_temperature;BME280_humidity;BME280_pressure;Samples;Min_cycle;Max_cycle;Signal;HPM_P1;HPM_P2
2020/12/19 00:02:01;;;;;;;9.90;6.50;;;7.70;84.70;;;;;;5136429;27;20489;-77
2020/12/19 00:04:26;;;;;;;10.13;6.43;;;7.70;84.80;;;;;;5136214;27;20401;-77
2020/12/19 00:06:52;;;;;;;8.18;6.30;;;7.70;84.80;;;;;;5154811;27;20389;-77
2020/12/19 00:09:18;;;;;;;7.55;5.60;;;7.70;84.80;;;;;;5135954;27;20033;-77
2020/12/19 00:11:43;;;;;;;9.25;6.20;;;7.70;84.80;;;;;;5136179;27;20027;-77
2020/12/19 00:14:10;;;;;;;9.82;6.22;;;7.60;85.40;;;;;;5154633;27;20061;-77
2020/12/19 00:16:35;;;;;;;8.50;6.50;;;7.70;84.90;;;;;;5135870;27;20363;-77
2020/12/19 00:19:05;;;;;;;7.57;6.50;;;7.60;84.80;;;;;;5135997;27;20048;-77
2020/12/19 00:21:35;;;;;;;8.68;6.53;;;7.60;84.80;;;;;;5136011;27;20030;-77
2020/12/19 00:24:02;;;;;;;11.05;6.90;;;7.60;84.80;;;;;;5135902;27;20050;-77
2020/12/19 00:26:36;;;;;;;9.70;7.03;;;7.60;84.80;;;;;;5154670;27;20053;-77
2020/12/19 00:29:02;;;;;;;10.70;6.80;;;7.60;84.90;;;;;;5136269;27;20018;-77
2020/12/19 00:31:27;;;;;;;9.23;6.82;;;7.60;84.90;;;;;;5154396;27;20067;-77
2020/12/19 00:33:53;;;;;;;9.10;6.75;;;7.60;85.00;;;;;;5136728;27;20019;-77
2020/12/19 00:36:19;;;;;;;10.50;7.20;;;7.60;85.00;;;;;;5135917;27;20106;-77
2020/12/19 00:38:45;;;;;;;10.38;6.90;;;7.60;85.00;;;;;;5135978;27;20470;-77
2020/12/19 00:41:19;;;;;;;9.05;6.40;;;7.60;85.00;;;;;;5135945;27;20386;-77
2020/12/19 00:43:45;;;;;;;9.13;6.72;;;7.60;85.10;;;;;;5135640;27;20026;-77
2020/12/19 00:46:12;;;;;;;10.38;6.72;;;7.60;85.10;;;;;;5135889;27;20034;-77
2020/12/19 00:48:39;;;;;;;8.52;7.00;;;7.50;85.00;;;;;;5135509;27;20082;-77
2020/12/19 00:51:04;;;;;;;8.82;6.97;;;7.50;85.20;;;;;;5135419;27;20438;-77
2020/12/19 00:53:30;;;;;;;9.45;6.90;;;7.50;85.20;;;;;;5135711;27;20022;-77
2020/12/19 00:55:56;;;;;;;8.52;6.97;;;7.50;85.20;;;;;;5135603;27;20029;-77
2020/12/19 00:58:21;;;;;;;9.93;7.30;;;7.50;85.20;;;;;;5154195;27;20106;-77
2020/12/19 01:00:47;;;;;;;10.60;7.10;;;7.50;85.20;;;;;;5135526;27;20344;-77
2020/12/19 01:03:13;;;;;;;9.32;7.10;;;7.50;85.30;;;;;;5135664;27;20057;-77
2020/12/19 01:05:38;;;;;;;9.70;7.03;;;7.40;85.30;;;;;;5135646;27;20110;-77
2020/12/19 01:08:04;;;;;;;11.10;8.25;;;7.50;85.40;;;;;;5135559;27;20026;-77
2020/12/19 01:10:29;;;;;;;10.32;7.35;;;7.50;85.40;;;;;;5158599;27;20034;-77
2020/12/19 01:12:55;;;;;;;9.43;7.25;;;7.40;85.40;;;;;;5139569;27;20026;-77
2020/12/19 01:15:21;;;;;;;11.70;7.80;;;7.50;85.50;;;;;;5158434;27;20083;-77
2020/12/19 01:17:46;;;;;;;11.25;7.70;;;7.50;85.50;;;;;;5157907;27;20092;-77
2020/12/19 01:20:12;;;;;;;10.57;7.10;;;7.50;85.50;;;;;;5139523;27;20059;-78
2020/12/19 01:22:37;;;;;;;9.70;7.35;;;7.40;85.50;;;;;;5139332;27;20026;-77
2020/12/19 01:25:03;;;;;;;9.23;7.35;;;7.40;85.50;;;;;;5140115;27;20105;-77
2020/12/19 01:27:29;;;;;;;8.70;6.78;;;7.50;85.60;;;;;;5157837;27;20105;-77
2020/12/19 01:29:54;;;;;;;9.73;7.57;;;7.50;85.50;;;;;;5139359;27;20079;-77
2020/12/19 01:32:20;;;;;;;9.35;7.18;;;7.50;85.50;;;;;;5139049;27;20118;-77
2020/12/19 01:34:46;;;;;;;11.40;8.20;;;7.40;85.50;;;;;;5139149;27;20431;-77
2020/12/19 01:37:11;;;;;;;9.98;7.50;;;7.40;85.50;;;;;;5157509;27;20423;-77
2020/12/19 01:39:37;;;;;;;9.90;7.88;;;7.40;85.50;;;;;;5138915;27;20076;-77
2020/12/19 01:42:05;;;;;;;9.95;7.60;;;7.40;85.50;;;;;;5138904;27;20011;-77
2020/12/19 01:44:30;;;;;;;10.65;7.82;;;7.40;85.60;;;;;;5138827;27;20022;-78
2020/12/19 01:47:01;;;;;;;12.07;8.20;;;7.40;85.60;;;;;;5138970;27;20058;-77
2020/12/19 01:49:33;;;;;;;11.48;7.90;;;7.40;85.60;;;;;;5157144;27;20045;-77
2020/12/19 01:52:01;;;;;;;14.18;8.93;;;7.40;85.60;;;;;;5138749;27;20064;-77
2020/12/19 01:54:29;;;;;;;10.57;7.80;;;7.40;85.60;;;;;;5157273;27;20076;-77
2020/12/19 01:56:56;;;;;;;11.07;7.93;;;7.40;85.60;;;;;;5157224;27;20034;-77
2020/12/19 01:59:25;;;;;;;12.50;8.30;;;7.40;85.60;;;;;;5138596;27;20118;-77
2020/12/19 02:01:54;;;;;;;11.80;8.43;;;7.40;85.60;;;;;;5138493;27;20088;-77
2020/12/19 02:04:21;;;;;;;10.90;7.82;;;7.40;85.70;;;;;;5157155;27;20163;-77
2020/12/19 02:06:50;;;;;;;10.55;7.53;;;7.40;85.70;;;;;;5156971;27;20058;-77
2020/12/19 02:09:17;;;;;;;10.10;7.40;;;7.40;85.70;;;;;;5138357;27;20441;-77
2020/12/19 02:11:44;;;;;;;10.90;7.20;;;7.30;85.60;;;;;;5157039;27;20037;-77
2020/12/19 02:14:13;;;;;;;10.18;8.18;;;7.30;85.60;;;;;;5138178;27;20045;-77
2020/12/19 02:16:51;;;;;;;11.55;8.20;;;7.30;85.60;;;;;;5156676;27;20022;-77
2020/12/19 02:19:17;;;;;;;11.48;8.35;;;7.30;85.60;;;;;;5156647;27;20034;-77
2020/12/19 02:21:43;;;;;;;12.43;8.50;;;7.30;85.60;;;;;;5137085;27;20015;-77
2020/12/19 02:24:09;;;;;;;11.95;8.13;;;7.40;85.60;;;;;;5138103;27;20357;-77
2020/12/19 02:26:35;;;;;;;11.95;8.48;;;7.40;85.60;;;;;;5156621;27;20385;-77
2020/12/19 02:29:01;;;;;;;11.10;8.05;;;7.40;85.60;;;;;;5137704;27;20110;-77
2020/12/19 02:31:26;;;;;;;12.63;9.02;;;7.30;85.60;;;;;;5156412;27;20074;-77
2020/12/19 02:33:52;;;;;;;12.68;8.95;;;7.30;85.50;;;;;;5137790;27;20014;-77
2020/12/19 02:36:18;;;;;;;12.23;8.10;;;7.30;85.50;;;;;;5137632;27;20107;-77
2020/12/19 02:38:44;;;;;;;11.98;8.90;;;7.30;85.50;;;;;;5137674;27;20508;-77
2020/12/19 02:41:10;;;;;;;12.32;8.68;;;7.30;85.50;;;;;;5137835;27;20018;-77
2020/12/19 02:43:35;;;;;;;11.43;8.23;;;7.30;85.60;;;;;;5137876;27;20023;-77
2020/12/19 02:46:01;;;;;;;11.30;8.50;;;7.30;85.60;;;;;;5156529;27;20027;-77
2020/12/19 02:48:27;;;;;;;11.20;8.02;;;7.30;85.60;;;;;;5156302;27;20058;-77
2020/12/19 02:50:52;;;;;;;11.25;8.00;;;7.20;85.60;;;;;;5137315;27;20413;-77
2020/12/19 02:53:18;;;;;;;12.68;7.85;;;7.30;85.70;;;;;;5137708;27;20031;-77
2020/12/19 02:55:44;;;;;;;9.68;8.18;;;7.30;85.70;;;;;;5137565;27;20053;-77
2020/12/19 02:58:09;;;;;;;11.63;8.23;;;7.20;85.70;;;;;;5137530;27;20509;-77
2020/12/19 03:00:35;;;;;;;10.55;7.75;;;7.30;85.80;;;;;;5156213;27;20064;-77
2020/12/19 03:03:01;;;;;;;12.25;8.35;;;7.20;85.70;;;;;;5137461;27;20026;-77
2020/12/19 03:05:27;;;;;;;11.32;8.50;;;7.20;85.70;;;;;;5137341;27;20026;-77
2020/12/19 03:07:52;;;;;;;10.93;8.10;;;7.20;85.70;;;;;;5155779;27;20474;-77
2020/12/19 03:10:18;;;;;;;10.75;7.82;;;7.20;85.70;;;;;;5136933;27;20027;-77
2020/12/19 03:12:44;;;;;;;13.05;7.95;;;7.20;85.80;;;;;;5155540;27;20038;-77
2020/12/19 03:15:09;;;;;;;10.30;8.15;;;7.20;85.80;;;;;;5136931;27;20100;-77
2020/12/19 03:17:35;;;;;;;11.65;7.97;;;7.20;85.80;;;;;;5155924;27;20027;-78
2020/12/19 03:20:00;;;;;;;12.20;8.48;;;7.20;85.80;;;;;;5136942;27;20029;-77
2020/12/19 03:22:26;;;;;;;11.90;8.15;;;7.20;85.80;;;;;;5155412;27;20091;-77
2020/12/19 03:24:52;;;;;;;10.18;7.68;;;7.20;85.80;;;;;;5155296;27;20050;-77
2020/12/19 03:27:17;;;;;;;12.43;8.27;;;7.20;85.80;;;;;;5136688;27;20114;-78
2020/12/19 03:29:43;;;;;;;11.50;8.27;;;7.20;85.80;;;;;;5155741;27;20080;-78
2020/12/19 03:32:08;;;;;;;11.05;7.82;;;7.20;85.80;;;;;;5136445;27;20027;-77
2020/12/19 03:34:34;;;;;;;10.55;7.90;;;7.20;85.80;;;;;;5136509;27;20023;-77
2020/12/19 03:37:00;;;;;;;11.57;8.05;;;7.20;85.80;;;;;;5136677;27;20470;-77
2020/12/19 03:39:26;;;;;;;10.93;7.50;;;7.20;85.80;;;;;;5136763;27;20125;-77
2020/12/19 03:41:51;;;;;;;11.52;7.78;;;7.10;85.80;;;;;;5155320;27;20134;-77
2020/12/19 03:44:17;;;;;;;10.50;7.82;;;7.10;86.30;;;;;;5155328;27;20023;-77
2020/12/19 03:46:42;;;;;;;11.88;7.68;;;7.10;85.80;;;;;;5155361;27;20030;-77
2020/12/19 03:49:09;;;;;;;11.30;8.40;;;7.10;85.70;;;;;;5136269;27;20046;-77
2020/12/19 03:51:35;;;;;;;11.38;7.78;;;7.10;85.70;;;;;;5155322;27;20111;-77
2020/12/19 03:54:01;;;;;;;11.60;8.27;;;7.10;85.70;;;;;;5136528;27;20431;-77
2020/12/19 03:56:26;;;;;;;11.38;8.13;;;7.10;85.80;;;;;;5136144;27;20035;-78
2020/12/19 03:58:52;;;;;;;12.65;8.25;;;7.10;85.80;;;;;;5136285;27;20063;-77
2020/12/19 04:01:18;;;;;;;10.75;7.78;;;7.10;85.80;;;;;;5154831;27;20110;-77
2020/12/19 04:03:43;;;;;;;13.18;8.48;;;7.10;85.80;;;;;;5136302;27;20110;-77
2020/12/19 04:06:09;;;;;;;10.90;8.02;;;7.10;85.80;;;;;;5136050;27;20047;-77
2020/12/19 04:08:35;;;;;;;10.85;7.50;;;7.10;85.90;;;;;;5136169;27;20026;-77
2020/12/19 04:11:00;;;;;;;11.13;7.70;;;7.10;85.80;;;;;;5136070;27;20438;-77
2020/12/19 04:13:26;;;;;;;10.70;8.05;;;7.10;85.90;;;;;;5135936;27;20129;-77
2020/12/19 04:15:52;;;;;;;10.90;7.90;;;7.20;86.00;;;;;;5136084;27;20055;-77
2020/12/19 04:18:17;;;;;;;11.50;8.13;;;7.10;85.90;;;;;;5154422;27;20051;-77
2020/12/19 04:20:43;;;;;;;10.90;7.90;;;7.20;86.00;;;;;;5135904;27;20501;-77
2020/12/19 04:23:09;;;;;;;11.57;8.27;;;7.10;85.90;;;;;;5136143;27;20386;-77
2020/12/19 04:25:35;;;;;;;10.95;8.05;;;7.10;85.90;;;;;;5135948;27;20136;-77
2020/12/19 04:28:00;;;;;;;11.95;8.55;;;7.20;86.00;;;;;;5154515;27;20031;-77
2020/12/19 04:30:26;;;;;;;11.07;8.38;;;7.20;86.00;;;;;;5154377;27;20034;-77
2020/12/19 04:32:51;;;;;;;11.10;8.18;;;7.20;86.10;;;;;;5135817;27;20027;-77
2020/12/19 04:35:17;;;;;;;12.55;8.60;;;7.20;86.10;;;;;;5135764;27;20035;-77
2020/12/19 04:37:43;;;;;;;10.45;7.78;;;7.10;86.10;;;;;;5154318;27;20123;-77
2020/12/19 04:40:09;;;;;;;13.35;7.82;;;7.10;86.10;;;;;;5154459;27;20025;-77
2020/12/19 04:42:35;;;;;;;12.70;8.43;;;7.10;86.10;;;;;;5136004;27;20117;-77
2020/12/19 04:45:04;;;;;;;11.90;8.52;;;7.10;86.10;;;;;;5142750;27;20474;-77
2020/12/19 04:47:30;;;;;;;12.15;8.07;;;7.10;86.70;;;;;;5142735;27;20030;-77
2020/12/19 04:49:58;;;;;;;11.75;7.68;;;7.20;86.10;;;;;;5139006;27;20050;-77
2020/12/19 04:52:24;;;;;;;11.73;8.40;;;7.10;86.10;;;;;;5139077;27;20032;-77
2020/12/19 04:54:51;;;;;;;10.50;7.88;;;7.10;86.10;;;;;;5140436;27;20030;-77
2020/12/19 04:57:18;;;;;;;11.10;8.00;;;7.20;86.20;;;;;;5138956;27;20037;-77
2020/12/19 04:59:45;;;;;;;11.05;8.18;;;7.20;86.10;;;;;;5138912;27;20389;-77
2020/12/19 05:02:10;;;;;;;11.35;7.78;;;7.10;86.10;;;;;;5138860;27;20019;-77
2020/12/19 05:04:43;;;;;;;11.63;7.90;;;7.20;86.20;;;;;;5139031;27;20076;-78
2020/12/19 05:07:13;;;;;;;24.95;9.27;;;7.20;86.20;;;;;;5140739;27;20059;-77
2020/12/19 05:09:41;;;;;;;12.02;8.23;;;7.20;86.20;;;;;;5140772;27;20088;-77
2020/12/19 05:12:08;;;;;;;11.73;8.20;;;7.20;86.20;;;;;;5140240;27;20456;-77
2020/12/19 05:14:35;;;;;;;10.60;7.60;;;7.10;86.20;;;;;;5140574;27;20096;-77
2020/12/19 05:17:00;;;;;;;14.55;8.35;;;7.10;86.20;;;;;;5140146;27;20425;-77
2020/12/19 05:19:30;;;;;;;11.25;8.30;;;7.10;86.30;;;;;;5138820;27;20076;-77
2020/12/19 05:21:56;;;;;;;13.93;8.55;;;7.10;86.30;;;;;;5138758;27;20034;-77
2020/12/19 05:24:30;;;;;;;10.48;7.85;;;7.20;86.30;;;;;;5138801;27;20359;-77
2020/12/19 05:26:57;;;;;;;10.60;7.53;;;7.20;86.30;;;;;;5140074;27;20023;-77
2020/12/19 05:29:23;;;;;;;12.68;8.15;;;7.20;86.30;;;;;;5138810;27;20408;-77
2020/12/19 05:31:59;;;;;;;9.63;7.28;;;7.20;86.30;;;;;;5139164;27;20024;-77
2020/12/19 05:34:27;;;;;;;11.75;7.85;;;7.20;86.30;;;;;;5138709;27;20027;-77
2020/12/19 05:36:54;;;;;;;11.65;7.78;;;7.10;86.30;;;;;;5138880;27;20035;-77
2020/12/19 05:39:20;;;;;;;11.18;8.52;;;7.20;86.40;;;;;;5138640;27;20118;-77
2020/12/19 05:41:48;;;;;;;11.07;7.80;;;7.20;86.40;;;;;;5139999;27;20028;-77
2020/12/19 05:44:19;;;;;;;11.98;7.60;;;7.20;86.40;;;;;;5139848;27;20091;-77
2020/12/19 05:46:45;;;;;;;11.63;7.93;;;7.20;86.40;;;;;;5138940;27;20505;-78
2020/12/19 05:49:11;;;;;;;11.77;8.07;;;7.20;86.40;;;;;;5138550;27;20051;-77
2020/12/19 05:51:40;;;;;;;11.73;8.02;;;7.20;86.40;;;;;;5138454;27;20039;-77
2020/12/19 05:54:10;;;;;;;12.30;8.10;;;7.20;86.40;;;;;;5138619;27;20117;-77
2020/12/19 05:56:42;;;;;;;10.65;7.93;;;7.20;86.50;;;;;;5135190;27;20034;-77
2020/12/19 05:59:12;;;;;;;12.10;8.05;;;7.20;86.50;;;;;;5135314;27;20023;-77
2020/12/19 06:01:51;;;;;;;9.30;7.22;;;7.20;86.40;;;;;;5135326;27;20485;-77
2020/12/19 06:04:17;;;;;;;11.55;8.32;;;7.20;86.50;;;;;;5135214;27;20382;-77
2020/12/19 06:06:46;;;;;;;11.63;8.05;;;7.20;86.50;;;;;;5135112;27;20546;-77
2020/12/19 06:09:12;;;;;;;11.88;8.45;;;7.20;87.10;;;;;;5135139;27;20019;-77
2020/12/19 06:12:02;;;;;;;11.32;8.23;;;7.20;86.50;;;;;;5136377;27;20497;-77
2020/12/19 06:14:34;;;;;;;12.13;7.70;;;7.20;86.50;;;;;;5134826;27;20444;-77
2020/12/19 06:17:12;;;;;;;12.07;8.10;;;7.20;86.50;;;;;;5135177;27;20115;-77
2020/12/19 06:19:42;;;;;;;12.15;7.72;;;7.10;86.50;;;;;;5135059;27;20057;-78
2020/12/19 06:22:08;;;;;;;11.15;7.68;;;7.20;86.50;;;;;;5134931;27;20026;-77
2020/12/19 06:24:47;;;;;;;11.00;7.57;;;7.10;86.50;;;;;;5134954;27;20031;-77
2020/12/19 06:27:38;;;;;;;11.88;7.78;;;7.10;86.50;;;;;;5135052;27;20034;-77
2020/12/19 06:30:04;;;;;;;10.70;7.50;;;7.10;86.50;;;;;;5136074;27;20386;-77
2020/12/19 06:32:31;;;;;;;12.00;7.90;;;7.10;86.50;;;;;;5136109;27;20031;-77
2020/12/19 06:35:05;;;;;;;11.32;8.20;;;7.10;86.50;;;;;;5134844;27;20027;-77
2020/12/19 06:37:33;;;;;;;10.10;8.10;;;7.00;86.40;;;;;;5134684;27;20031;-77
2020/12/19 06:40:25;;;;;;;10.27;7.57;;;7.00;86.40;;;;;;5134678;27;20106;-77
2020/12/19 06:43:14;;;;;;;10.90;7.70;;;7.00;86.30;;;;;;5131596;27;20180;-77
2020/12/19 06:45:40;;;;;;;10.80;7.43;;;7.00;86.40;;;;;;5135782;27;20027;-77
2020/12/19 06:48:31;;;;;;;11.23;7.97;;;7.00;86.30;;;;;;5135873;27;20042;-76
2020/12/19 06:51:04;;;;;;;11.45;7.80;;;7.00;86.40;;;;;;5134610;27;20043;-77
2020/12/19 06:53:31;;;;;;;11.52;7.07;;;7.00;86.40;;;;;;5134530;27;20054;-77
2020/12/19 06:56:00;;;;;;;11.05;7.15;;;7.00;86.50;;;;;;5135788;27;20371;-77
2020/12/19 06:58:33;;;;;;;11.20;7.70;;;7.00;86.40;;;;;;5134295;27;20038;-77
2020/12/19 07:01:01;;;;;;;11.13;7.68;;;7.00;86.40;;;;;;5136160;27;20455;-77
2020/12/19 07:03:42;;;;;;;11.27;7.63;;;6.90;86.40;;;;;;5133993;27;20019;-78
2020/12/19 07:06:10;;;;;;;10.32;7.55;;;6.90;86.30;;;;;;5134834;27;20084;-77
2020/12/19 07:08:35;;;;;;;10.68;7.90;;;6.90;86.30;;;;;;5134346;27;20019;-77
2020/12/19 07:11:01;;;;;;;11.57;7.60;;;7.00;86.40;;;;;;5133954;27;20038;-77
2020/12/19 07:13:54;;;;;;;11.27;7.70;;;6.90;86.30;;;;;;5135223;27;20110;-77
2020/12/19 07:16:42;;;;;;;10.27;7.50;;;7.00;86.40;;;;;;5133679;27;20023;-77
2020/12/19 07:19:26;;;;;;;12.25;7.50;;;7.00;86.40;;;;;;5133819;27;20031;-77
2020/12/19 07:21:57;;;;;;;10.90;7.70;;;6.90;86.30;;;;;;5134041;27;20027;-77
2020/12/19 07:24:24;;;;;;;10.40;7.28;;;7.00;86.40;;;;;;5133818;27;20125;-78
2020/12/19 07:26:51;;;;;;;11.50;7.82;;;6.90;86.30;;;;;;5133717;27;20042;-77
2020/12/19 07:29:21;;;;;;;10.65;7.15;;;6.90;86.30;;;;;;5134993;27;20042;-77
2020/12/19 07:31:59;;;;;;;10.85;7.78;;;7.00;86.40;;;;;;5134168;27;20035;-77
2020/12/19 07:34:25;;;;;;;11.52;8.10;;;7.00;86.40;;;;;;5133444;27;20035;-77
2020/12/19 07:36:53;;;;;;;11.15;8.50;;;7.00;86.30;;;;;;5134601;27;20474;-77
2020/12/19 07:39:21;;;;;;;10.85;7.90;;;7.00;86.30;;;;;;5133248;27;20389;-77
2020/12/19 07:42:01;;;;;;;11.48;7.97;;;7.00;86.30;;;;;;5134639;27;20038;-77
2020/12/19 07:44:28;;;;;;;11.40;8.40;;;7.00;86.40;;;;;;5134350;27;20066;-77
2020/12/19 07:47:00;;;;;;;11.27;8.30;;;7.00;86.40;;;;;;5134662;27;20027;-77
2020/12/19 07:49:29;;;;;;;10.60;7.90;;;6.90;86.40;;;;;;5135400;27;20046;-76
2020/12/19 07:52:05;;;;;;;12.30;8.60;;;6.90;86.40;;;;;;5136687;27;20426;-77
2020/12/19 07:54:31;;;;;;;11.05;8.30;;;7.00;86.40;;;;;;5155152;27;20070;-77
2020/12/19 07:56:57;;;;;;;11.52;8.63;;;7.00;86.40;;;;;;5136347;27;20115;-77
2020/12/19 07:59:23;;;;;;;11.38;7.63;;;7.00;86.30;;;;;;5154969;27;20034;-77
2020/12/19 08:01:49;;;;;;;11.23;8.30;;;7.00;86.30;;;;;;5154889;27;20389;-77
2020/12/19 08:04:15;;;;;;;10.23;7.60;;;7.00;86.20;;;;;;5136315;27;20453;-77
2020/12/19 08:06:42;;;;;;;11.40;8.40;;;7.00;86.20;;;;;;5136170;27;20075;-77
2020/12/19 08:09:08;;;;;;;11.05;7.60;;;7.00;86.70;;;;;;5154776;27;20023;-77
2020/12/19 08:11:43;;;;;;;12.93;9.10;;;7.10;86.20;;;;;;5154733;27;20104;-77
2020/12/19 08:14:09;;;;;;;11.05;8.27;;;7.10;86.10;;;;;;5154587;27;20037;-77
2020/12/19 08:16:35;;;;;;;11.88;8.25;;;7.10;86.10;;;;;;5135992;27;20054;-77
2020/12/19 08:19:01;;;;;;;10.07;7.43;;;7.10;86.60;;;;;;5135251;27;20030;-77
2020/12/19 08:21:27;;;;;;;10.50;7.97;;;7.10;86.00;;;;;;5135976;27;20430;-77
2020/12/19 08:23:54;;;;;;;11.52;8.20;;;7.10;85.90;;;;;;5136469;27;20508;-77
2020/12/19 08:26:20;;;;;;;9.10;7.38;;;7.20;86.00;;;;;;5154734;27;20031;-77
2020/12/19 08:29:00;;;;;;;10.55;8.07;;;7.20;85.90;;;;;;5136061;27;20039;-78
2020/12/19 08:31:27;;;;;;;10.82;8.20;;;7.20;86.00;;;;;;5135893;27;20034;-77
2020/12/19 08:33:53;;;;;;;12.43;9.20;;;7.30;86.00;;;;;;5135778;27;20034;-77
2020/12/19 08:36:19;;;;;;;10.07;8.18;;;7.40;85.80;;;;;;5154272;27;20030;-77
2020/12/19 08:38:44;;;;;;;11.20;8.23;;;7.60;85.70;;;;;;5135735;27;20027;-77
2020/12/19 08:41:20;;;;;;;9.20;7.22;;;7.70;85.30;;;;;;5154248;27;20102;-77
2020/12/19 08:43:46;;;;;;;10.40;7.50;;;7.70;85.30;;;;;;5135672;27;20027;-77
2020/12/19 08:46:15;;;;;;;10.00;7.03;;;7.70;85.30;;;;;;5135776;27;20118;-77
2020/12/19 08:48:42;;;;;;;9.95;7.38;;;7.60;85.30;;;;;;5155135;27;20373;-77
2020/12/19 08:51:09;;;;;;;9.70;7.03;;;7.70;85.50;;;;;;5135702;27;20445;-77
2020/12/19 08:53:36;;;;;;;11.13;7.22;;;7.60;85.50;;;;;;5154393;27;20075;-77
2020/12/19 08:56:17;;;;;;;10.30;7.50;;;7.70;85.60;;;;;;5154339;27;20027;-77
2020/12/19 08:58:51;;;;;;;9.77;7.53;;;7.70;85.60;;;;;;5135552;27;20027;-77
2020/12/19 09:01:17;;;;;;;9.23;6.93;;;7.70;85.60;;;;;;5154314;27;20143;-77
2020/12/19 09:03:44;;;;;;;10.93;7.57;;;7.80;85.70;;;;;;5135738;27;20027;-74
2020/12/19 09:06:12;;;;;;;9.27;7.57;;;7.80;85.60;;;;;;5154068;27;20033;-74
2020/12/19 09:08:49;;;;;;;10.68;7.97;;;7.90;85.70;;;;;;5154412;27;20030;-74
2020/12/19 09:11:33;;;;;;;9.27;7.43;;;8.00;85.80;;;;;;5135461;27;20130;-74
2020/12/19 09:14:06;;;;;;;9.23;6.80;;;8.00;85.70;;;;;;5135350;27;20027;-74
2020/12/19 09:16:32;;;;;;;10.83;7.40;;;8.00;85.70;;;;;;5154363;27;20087;-74
2020/12/19 09:18:58;;;;;;;10.40;6.90;;;8.10;85.70;;;;;;5154081;27;20276;-75
2020/12/19 09:21:24;;;;;;;7.93;6.13;;;8.20;85.70;;;;;;5135150;27;20578;-74
2020/12/19 09:23:49;;;;;;;9.20;7.03;;;8.20;85.70;;;;;;5135140;27;20019;-75
2020/12/19 09:26:15;;;;;;;8.85;6.80;;;8.30;85.70;;;;;;5155335;27;20068;-75
2020/12/19 09:28:40;;;;;;;9.25;7.05;;;8.40;85.80;;;;;;5135287;27;20122;-75
2020/12/19 09:31:08;;;;;;;8.50;6.50;;;8.40;85.80;;;;;;5140157;27;20031;-74
2020/12/19 09:33:33;;;;;;;9.95;7.03;;;8.50;85.90;;;;;;5158887;27;20035;-74
2020/12/19 09:35:59;;;;;;;9.15;6.57;;;8.60;85.90;;;;;;5139030;27;20049;-74
2020/12/19 09:38:25;;;;;;;11.00;7.10;;;8.60;85.80;;;;;;5139057;27;20027;-74
2020/12/19 09:40:51;;;;;;;11.98;7.68;;;8.70;85.80;;;;;;5139415;27;20019;-74
2020/12/19 09:43:19;;;;;;;9.05;6.75;;;8.80;85.80;;;;;;5138759;27;20048;-78
2020/12/19 09:45:45;;;;;;;9.95;7.13;;;8.80;85.70;;;;;;5139706;27;20481;-75
2020/12/19 09:48:11;;;;;;;9.57;6.80;;;8.90;85.80;;;;;;5140095;27;20129;-75
2020/12/19 09:50:36;;;;;;;12.55;6.97;;;8.90;85.80;;;;;;5158137;27;20082;-75
2020/12/19 09:53:02;;;;;;;8.45;6.97;;;9.00;85.80;;;;;;5139563;27;20421;-75
2020/12/19 09:55:28;;;;;;;10.30;7.70;;;9.00;85.90;;;;;;5139052;27;20023;-75
2020/12/19 09:57:54;;;;;;;10.70;7.32;;;9.10;86.00;;;;;;5139696;27;20126;-74
2020/12/19 10:00:20;;;;;;;10.52;7.65;;;9.20;86.00;;;;;;5157085;27;20029;-74
2020/12/19 10:02:53;;;;;;;9.27;7.05;;;9.20;85.90;;;;;;5157240;27;20027;-74
2020/12/19 10:05:19;;;;;;;9.93;7.43;;;9.30;85.90;;;;;;5156985;27;20033;-74
2020/12/19 10:07:44;;;;;;;9.80;7.28;;;9.40;86.00;;;;;;5156836;27;20264;-75
2020/12/19 10:10:10;;;;;;;10.70;7.28;;;9.50;85.90;;;;;;5138448;27;20076;-74
2020/12/19 10:12:36;;;;;;;8.77;7.30;;;9.50;85.90;;;;;;5138555;27;20039;-77
2020/12/19 10:15:03;;;;;;;10.50;8.13;;;9.60;85.80;;;;;;5137472;27;20031;-74
2020/12/19 10:17:29;;;;;;;9.52;6.63;;;9.70;85.80;;;;;;5156760;27;20066;-74
2020/12/19 10:19:55;;;;;;;8.75;6.88;;;9.70;85.60;;;;;;5138042;27;20054;-73
2020/12/19 10:22:21;;;;;;;9.35;6.97;;;9.80;85.60;;;;;;5156604;27;20109;-73
2020/12/19 10:24:46;;;;;;;7.80;6.00;;;9.90;85.60;;;;;;5138669;27;20378;-73
2020/12/19 10:27:12;;;;;;;8.13;6.68;;;10.00;85.50;;;;;;5137864;27;20057;-73
2020/12/19 10:29:38;;;;;;;8.73;7.07;;;10.00;85.40;;;;;;5156401;27;20050;-73
2020/12/19 10:32:08;;;;;;;9.40;6.88;;;10.00;85.30;;;;;;5137729;27;20124;-73
2020/12/19 10:34:34;;;;;;;10.38;7.47;;;10.10;85.30;;;;;;5138120;27;20362;-73
2020/12/19 10:37:00;;;;;;;9.05;6.65;;;10.20;85.30;;;;;;5137598;27;20022;-73
2020/12/19 10:39:25;;;;;;;8.93;7.13;;;10.20;85.10;;;;;;5156270;27;20023;-73
2020/12/19 10:41:51;;;;;;;7.93;6.57;;;10.30;85.10;;;;;;5136644;27;20026;-73
2020/12/19 10:44:17;;;;;;;7.53;5.78;;;10.30;85.00;;;;;;5137414;27;20030;-73
2020/12/19 10:46:43;;;;;;;8.45;6.38;;;10.40;85.00;;;;;;5156538;27;20035;-73
2020/12/19 10:49:09;;;;;;;8.40;6.40;;;10.40;84.90;;;;;;5137297;27;20023;-73
2020/12/19 10:51:35;;;;;;;10.70;6.30;;;10.40;84.80;;;;;;5155612;27;20394;-73
2020/12/19 10:54:00;;;;;;;8.05;6.35;;;10.50;84.80;;;;;;5155883;27;20029;-74
2020/12/19 10:56:26;;;;;;;7.85;6.18;;;10.50;84.70;;;;;;5155815;27;20427;-73
2020/12/19 10:58:52;;;;;;;9.43;5.93;;;10.60;84.70;;;;;;5155876;27;20106;-73
2020/12/19 11:01:18;;;;;;;10.68;6.50;;;10.60;84.60;;;;;;5137228;27;20015;-73
2020/12/19 11:03:45;;;;;;;8.00;6.18;;;10.60;84.60;;;;;;5137252;27;20075;-74
2020/12/19 11:06:30;;;;;;;7.18;5.90;;;10.70;84.50;;;;;;5137127;27;20018;-73
2020/12/19 11:08:56;;;;;;;8.52;6.22;;;10.70;84.40;;;;;;5136496;27;20038;-73
2020/12/19 11:11:22;;;;;;;8.20;6.18;;;10.70;84.30;;;;;;5137141;27;20445;-73
2020/12/19 11:13:49;;;;;;;8.25;6.57;;;10.80;84.40;;;;;;5155824;27;20018;-74
2020/12/19 11:16:30;;;;;;;6.75;5.65;;;10.80;84.30;;;;;;5137286;27;20030;-73
2020/12/19 11:22:18;;;;;;;6.65;5.55;;;10.90;84.30;;;;;;5157670;27;20114;-74
2020/12/19 11:24:44;;;;;;;8.30;6.13;;;10.90;84.20;;;;;;5137787;27;20103;-74
2020/12/19 11:27:09;;;;;;;7.07;5.55;;;11.00;84.20;;;;;;5155534;27;20478;-73
2020/12/19 11:29:35;;;;;;;7.43;6.22;;;11.00;84.00;;;;;;5155827;27;20027;-74
2020/12/19 11:32:04;;;;;;;9.40;5.80;;;11.00;84.00;;;;;;5155867;27;20486;-75
2020/12/19 11:34:31;;;;;;;6.90;5.30;;;11.00;84.00;;;;;;5136587;27;20080;-74
2020/12/19 11:36:57;;;;;;;5.78;5.05;;;11.00;83.90;;;;;;5136512;27;20049;-74
2020/12/19 11:39:22;;;;;;;9.40;5.70;;;11.10;84.60;;;;;;5136553;27;20023;-74
2020/12/19 11:41:48;;;;;;;6.50;5.20;;;11.20;84.40;;;;;;5155421;27;20107;-73
2020/12/19 11:44:13;;;;;;;6.82;5.72;;;11.20;84.20;;;;;;5154951;27;20018;-74
2020/12/19 11:46:39;;;;;;;8.10;5.97;;;11.30;84.00;;;;;;5155164;27;20027;-74
2020/12/19 11:49:06;;;;;;;8.55;6.32;;;11.30;83.80;;;;;;5136386;27;20027;-74
2020/12/19 11:51:33;;;;;;;7.57;6.00;;;11.40;83.60;;;;;;5136390;27;20469;-73
2020/12/19 11:53:59;;;;;;;7.78;5.80;;;11.40;83.30;;;;;;5154747;27;20119;-74
2020/12/19 11:56:26;;;;;;;8.43;5.57;;;11.50;83.20;;;;;;5136458;27;20026;-73
2020/12/19 11:58:51;;;;;;;9.52;5.57;;;11.60;83.10;;;;;;5154837;27;20038;-74
2020/12/19 12:01:17;;;;;;;8.70;6.25;;;11.60;82.90;;;;;;5136247;27;20026;-73
2020/12/19 12:03:43;;;;;;;6.68;5.40;;;11.70;82.80;;;;;;5136256;27;20026;-73
2020/12/19 12:06:08;;;;;;;7.30;4.93;;;11.70;82.60;;;;;;5137496;27;20082;-73
2020/12/19 12:08:34;;;;;;;6.60;5.05;;;11.80;82.70;;;;;;5154578;27;20027;-75
2020/12/19 12:11:00;;;;;;;7.65;4.75;;;11.80;82.50;;;;;;5154703;27;20031;-74
2020/12/19 12:13:26;;;;;;;5.57;4.50;;;11.90;82.30;;;;;;5154820;27;20087;-75
2020/12/19 12:15:51;;;;;;;5.35;4.32;;;12.00;82.10;;;;;;5136256;27;20083;-75
2020/12/19 12:18:17;;;;;;;6.45;4.55;;;12.10;82.00;;;;;;5154929;27;20436;-75
2020/12/19 12:20:43;;;;;;;6.60;4.72;;;12.20;82.50;;;;;;5155112;27;20030;-74
2020/12/19 12:23:09;;;;;;;5.85;4.28;;;12.20;81.70;;;;;;5136048;27;20054;-73
2020/12/19 12:25:34;;;;;;;5.03;4.50;;;12.30;81.60;;;;;;5154419;27;20050;-74
2020/12/19 12:28:00;;;;;;;6.45;4.70;;;12.30;81.40;;;;;;5135763;27;20027;-73
2020/12/19 12:30:25;;;;;;;7.00;5.03;;;12.20;81.40;;;;;;5135834;27;20049;-73
2020/12/19 12:32:51;;;;;;;6.95;4.38;;;12.20;81.20;;;;;;5136020;27;20492;-74
2020/12/19 12:35:17;;;;;;;5.68;4.55;;;12.20;81.30;;;;;;5135528;27;20113;-73
2020/12/19 12:37:42;;;;;;;6.05;4.68;;;12.20;81.40;;;;;;5154072;27;20382;-74
2020/12/19 12:40:08;;;;;;;5.45;4.65;;;12.10;81.30;;;;;;5135501;27;20018;-75
2020/12/19 12:42:34;;;;;;;8.40;5.30;;;12.10;81.30;;;;;;5135670;27;20088;-74
2020/12/19 12:44:59;;;;;;;7.07;5.20;;;12.10;81.90;;;;;;5154143;27;20035;-73
2020/12/19 12:47:25;;;;;;;6.53;5.20;;;12.10;81.30;;;;;;5154129;27;20023;-76
2020/12/19 12:49:51;;;;;;;6.88;5.00;;;12.10;81.20;;;;;;5135602;27;20395;-74
2020/12/19 12:52:16;;;;;;;7.63;5.55;;;12.10;81.30;;;;;;5154124;27;20022;-75
2020/12/19 12:54:42;;;;;;;8.65;5.25;;;12.10;81.30;;;;;;5154337;27;20023;-76